Time;durP1;ratioP1;P1;durP2;ratioP2;P2;SDS_P1;SDS_P2;PMS_P1;PMS_P2;Temp;Humidity;BMP_temperature;BMP_pressure;BME280_temperature;BME280_humidity;BME280_pressure;Samples;Min_cycle;Max_cycle;Signal;HPM_P1;HPM_P2
2022/09/01 00:01:07;;;;;;;10.52;8.25;;;;;;;24.55;53.46;94763.00;5021291;28;20017;-62
2022/09/01 00:03:33;;;;;;;12.70;8.52;;;;;;;24.63;52.91;94757.63;5003803;28;20576;-62
2022/09/01 00:05:59;;;;;;;10.93;9.18;;;;;;;24.48;53.02;94746.50;5020596;28;20045;-62
2022/09/01 00:08:25;;;;;;;12.65;9.13;;;;;;;24.50;53.20;94765.84;5006429;28;20037;-63
2022/09/01 00:10:50;;;;;;;11.00;8.30;;;;;;;24.54;52.90;94760.78;5021714;28;20036;-63
2022/09/01 00:13:16;;;;;;;9.60;8.52;;;;;;;24.55;53.04;94751.34;5011891;28;20541;-63
2022/09/01 00:15:42;;;;;;;9.63;8.43;;;;;;;24.52;53.07;94755.13;5020023;28;20461;-63
2022/09/01 00:18:07;;;;;;;11.05;8.85;;;;;;;24.49;52.67;94747.97;5002984;28;20096;-63
2022/09/01 00:20:33;;;;;;;10.77;9.52;;;;;;;24.59;52.75;94746.31;5021221;28;20041;-63
2022/09/01 00:22:59;;;;;;;14.30;9.95;;;;;;;24.48;52.67;94741.03;5020280;28;20559;-63
2022/09/01 00:25:25;;;;;;;10.23;8.98;;;;;;;24.43;52.82;94750.06;5003197;28;20058;-64
2022/09/01 00:27:50;;;;;;;11.23;8.82;;;;;;;24.51;52.69;94739.97;5001475;28;20557;-62
2022/09/01 00:30:16;;;;;;;10.68;9.23;;;;;;;24.40;52.73;94734.72;5021421;28;20064;-63
2022/09/01 00:32:45;;;;;;;10.05;8.20;;;;;;;24.49;52.74;94753.44;4998655;28;20058;-63
2022/09/01 00:35:12;;;;;;;10.50;8.55;;;;;;;24.45;52.98;94753.00;4995317;28;20514;-63
2022/09/01 00:37:37;;;;;;;10.68;8.80;;;;;;;24.40;53.04;94756.56;5020550;28;20629;-61
2022/09/01 00:40:04;;;;;;;10.85;8.63;;;;;;;24.32;53.19;94755.69;5003423;28;20045;-62
2022/09/01 00:42:29;;;;;;;13.55;9.18;;;;;;;24.25;53.36;94756.28;4999003;28;20033;-62
2022/09/01 00:44:55;;;;;;;12.55;9.02;;;;;;;24.23;53.20;94758.81;5020895;28;20030;-63
2022/09/01 00:47:20;;;;;;;11.40;9.20;;;;;;;24.20;53.50;94748.94;5020883;28;20049;-62
2022/09/01 00:49:47;;;;;;;11.00;9.02;;;;;;;24.16;53.55;94773.03;5024854;28;20034;-62
2022/09/01 00:52:36;;;;;;;9.70;8.38;;;;;;;24.23;53.42;94756.06;5004963;28;20034;-62
2022/09/01 00:55:09;;;;;;;11.50;8.75;;;;;;;24.38;53.27;94770.00;4994304;28;20128;-63
2022/09/01 00:57:34;;;;;;;11.07;8.70;;;;;;;24.25;53.36;94772.66;5000565;28;20034;-63
2022/09/01 01:00:04;;;;;;;11.07;8.45;;;;;;;24.37;52.93;94768.53;5023940;28;20068;-62
2022/09/01 01:02:29;;;;;;;11.38;8.52;;;;;;;24.26;53.05;94763.22;5006546;28;20037;-63
2022/09/01 01:04:59;;;;;;;12.05;9.55;;;;;;;24.19;53.29;94758.38;5024470;28;20091;-63
2022/09/01 01:07:26;;;;;;;9.32;8.32;;;;;;;24.26;53.38;94768.69;5023564;28;20544;-63
2022/09/01 01:09:51;;;;;;;10.88;8.63;;;;;;;24.29;53.07;94773.09;5002514;28;20113;-63
2022/09/01 01:12:17;;;;;;;10.35;8.60;;;;;;;24.30;52.77;94780.00;5021454;28;20827;-63
2022/09/01 01:14:48;;;;;;;10.43;8.50;;;;;;;24.20;53.26;94770.75;5019003;28;20049;-63
2022/09/01 01:17:14;;;;;;;12.27;8.88;;;;;;;24.26;53.24;94770.66;5008921;28;20041;-62
2022/09/01 01:23:01;;;;;;;11.07;8.00;;;;;;;24.29;52.93;94773.09;5004765;28;20537;-62
2022/09/01 01:25:47;;;;;;;10.27;8.32;;;;;;;24.31;52.78;94773.31;5005474;28;20049;-63
2022/09/01 01:28:29;;;;;;;10.18;8.55;;;;;;;24.04;53.54;94746.47;4995062;28;20042;-63
2022/09/01 01:31:17;;;;;;;12.43;8.43;;;;;;;23.55;52.93;94657.94;4979797;28;20464;-62
2022/09/01 01:33:47;;;;;;;10.20;7.70;;;;;;;24.30;53.29;94768.38;5023786;28;20429;-63
2022/09/01 01:36:32;;;;;;;;;;;;;;;24.10;53.77;94771.66;5010448;28;20042;-62
2022/09/01 01:39:11;;;;;;;10.63;8.90;;;;;;;24.12;53.56;94772.59;5024027;28;20424;-63
2022/09/01 01:41:40;;;;;;;9.82;8.20;;;;;;;24.19;53.09;94769.28;5022382;28;20060;-62
2022/09/01 01:44:06;;;;;;;10.00;8.80;;;;;;;24.15;53.65;94785.22;5019051;28;20033;-63
2022/09/01 01:46:32;;;;;;;11.82;8.32;;;;;;;24.22;53.56;94781.16;5022889;28;20393;-62
2022/09/01 01:48:58;;;;;;;9.98;8.15;;;;;;;24.15;53.44;94779.75;5024164;28;20045;-62
2022/09/01 01:51:26;;;;;;;9.38;8.43;;;;;;;24.13;53.53;94782.28;5023378;28;20028;-61
2022/09/01 01:53:52;;;;;;;9.15;8.30;;;;;;;24.03;53.44;94783.91;5015656;28;20044;-61
2022/09/01 01:56:18;;;;;;;8.77;7.93;;;;;;;24.02;53.48;94782.44;5005550;28;20052;-62
2022/09/01 01:58:44;;;;;;;9.20;8.23;;;;;;;24.04;53.77;94785.38;5006007;28;20034;-63
2022/09/01 02:01:11;;;;;;;9.15;8.05;;;;;;;24.18;53.02;94789.63;5022786;28;20095;-62
2022/09/01 02:03:37;;;;;;;9.70;7.90;;;;;;;24.08;53.29;94791.28;5023158;28;20029;-62
2022/09/01 02:06:06;;;;;;;9.82;8.68;;;;;;;24.05;52.98;94781.41;5005144;28;20064;-62
2022/09/01 02:08:33;;;;;;;12.02;8.55;;;;;;;24.02;53.63;94793.34;5012398;28;20040;-63
2022/09/01 02:10:58;;;;;;;9.70;7.50;;;;;;;23.86;53.63;94779.22;5023138;28;20038;-62
2022/09/01 02:13:27;;;;;;;9.05;7.95;;;;;;;24.07;53.01;94798.00;5013049;28;20044;-61
2022/09/01 02:15:53;;;;;;;12.55;8.18;;;;;;;24.00;53.57;94795.84;5022270;28;20033;-62
2022/09/01 02:18:25;;;;;;;9.77;8.15;;;;;;;23.82;53.27;94767.88;5023738;28;20039;-61
2022/09/01 02:20:51;;;;;;;9.68;7.97;;;;;;;24.02;53.52;94798.81;5005934;28;20069;-61
2022/09/01 02:23:22;;;;;;;10.02;8.27;;;;;;;23.98;53.55;94792.91;5009157;28;20131;-61
2022/09/01 02:25:48;;;;;;;9.60;8.23;;;;;;;23.98;53.26;94798.38;5022770;28;20072;-62
2022/09/01 02:28:14;;;;;;;10.60;7.95;;;;;;;23.99;53.48;94804.56;5022499;28;20055;-62
2022/09/01 02:30:44;;;;;;;9.63;7.80;;;;;;;23.93;53.68;94791.00;5023270;28;20026;-62
2022/09/01 02:33:18;;;;;;;8.95;7.82;;;;;;;23.85;53.37;94788.66;5014382;28;20042;-60
2022/09/01 02:35:47;;;;;;;9.85;8.20;;;;;;;23.65;53.76;94764.66;5022436;28;20049;-62
2022/09/01 02:38:13;;;;;;;10.27;8.70;;;;;;;23.92;53.50;94784.06;4998622;28;20072;-62
2022/09/01 02:40:43;;;;;;;11.10;8.32;;;;;;;23.94;53.21;94786.28;5022688;28;20150;-61
2022/09/01 02:43:10;;;;;;;;;;;;;;;23.95;53.29;94777.59;5016479;28;20045;-62
2022/09/01 02:45:36;;;;;;;10.23;8.40;;;;;;;24.02;53.23;94782.44;5022807;28;19920;-61
2022/09/01 02:48:06;;;;;;;10.82;8.60;;;;;;;24.02;53.37;94782.44;5021176;28;20037;-62
2022/09/01 02:50:32;;;;;;;11.10;8.35;;;;;;;23.86;53.38;94779.22;5021834;28;20464;-62
2022/09/01 02:52:59;;;;;;;11.20;8.55;;;;;;;23.81;53.28;94788.22;5019963;28;20038;-62
2022/09/01 02:55:25;;;;;;;10.90;9.23;;;;;;;23.88;53.75;94775.47;5022549;28;20041;-62
2022/09/01 02:57:54;;;;;;;12.77;8.80;;;;;;;23.89;53.03;94763.28;5021757;28;20029;-62
2022/09/01 03:00:21;;;;;;;11.10;9.07;;;;;;;23.92;53.11;94769.72;5005766;28;20030;-62
2022/09/01 03:02:51;;;;;;;10.52;8.23;;;;;;;23.92;53.26;94773.16;5020807;28;20029;-62
2022/09/01 03:05:18;;;;;;;;;;;;;;;23.85;53.42;94777.75;5021962;28;20449;-62
2022/09/01 03:07:44;;;;;;;9.35;8.40;;;;;;;23.85;52.96;94777.75;5003937;28;19925;-61
2022/09/01 03:10:09;;;;;;;12.50;9.23;;;;;;;23.81;53.52;94771.84;5026034;28;20041;-61
2022/09/01 03:12:34;;;;;;;11.65;8.30;;;;;;;23.90;53.05;94780.38;5022957;28;20025;-62
2022/09/01 03:15:00;;;;;;;9.48;8.15;;;;;;;23.67;53.31;94748.50;5024604;28;20153;-61
2022/09/01 03:17:26;;;;;;;9.88;8.73;;;;;;;23.84;52.72;94762.63;4989692;28;20037;-62
2022/09/01 03:19:51;;;;;;;10.18;8.57;;;;;;;23.73;53.61;94770.97;5010921;28;20067;-62
2022/09/01 03:22:17;;;;;;;10.95;8.50;;;;;;;23.71;53.29;94768.03;5016614;28;20045;-62
2022/09/01 03:24:42;;;;;;;10.07;8.70;;;;;;;23.58;54.08;94782.28;5023132;28;20633;-61
2022/09/01 03:27:10;;;;;;;10.23;8.23;;;;;;;23.69;53.30;94771.28;5020184;28;20048;-62
2022/09/01 03:29:37;;;;;;;9.07;8.18;;;;;;;23.64;53.52;94774.09;5022395;28;20048;-61
2022/09/01 03:32:03;;;;;;;11.27;8.77;;;;;;;23.68;53.28;94785.44;5020125;28;20505;-62
2022/09/01 03:34:33;;;;;;;9.95;8.68;;;;;;;23.65;53.44;94781.03;5021447;28;20120;-61
2022/09/01 03:36:58;;;;;;;11.55;8.93;;;;;;;23.49;53.77;94768.31;5019162;28;20025;-63
2022/09/01 03:39:24;;;;;;;9.50;8.30;;;;;;;23.69;53.19;94789.63;4984392;28;20049;-61
2022/09/01 03:41:49;;;;;;;11.75;8.82;;;;;;;23.76;52.74;94786.31;5019353;28;20422;-63
2022/09/01 03:44:15;;;;;;;9.35;8.35;;;;;;;23.77;52.60;94782.34;5015863;28;20528;-62
2022/09/01 03:46:41;;;;;;;10.05;8.68;;;;;;;23.73;52.78;94779.16;5021130;28;20470;-61
2022/09/01 03:49:08;;;;;;;9.82;8.43;;;;;;;23.59;52.98;94772.16;5021651;28;20053;-61
2022/09/01 03:51:34;;;;;;;11.77;8.73;;;;;;;23.69;53.08;94792.34;5000472;28;20033;-63
2022/09/01 03:53:59;;;;;;;11.23;8.95;;;;;;;23.67;53.07;94781.22;5012858;28;20068;-62
2022/09/01 03:56:26;;;;;;;9.68;8.48;;;;;;;23.67;53.17;94773.06;5021043;28;20034;-62
2022/09/01 03:58:53;;;;;;;10.75;9.15;;;;;;;23.62;53.39;94771.13;5021414;28;20030;-61
2022/09/01 04:01:18;;;;;;;11.55;9.18;;;;;;;23.65;52.87;94789.19;5020394;28;20033;-62
2022/09/01 04:03:47;;;;;;;10.38;8.88;;;;;;;23.67;53.18;94789.41;5003409;28;20076;-61
2022/09/01 04:06:13;;;;;;;9.45;8.43;;;;;;;23.53;52.85;94763.31;5009232;28;20050;-61
2022/09/01 04:08:39;;;;;;;11.35;9.13;;;;;;;23.73;52.70;94781.88;5003423;28;20333;-60
2022/09/01 04:11:12;;;;;;;9.80;8.43;;;;;;;23.66;52.95;94790.66;5021392;28;20140;-61
2022/09/01 04:13:39;;;;;;;10.10;9.10;;;;;;;23.68;53.01;94793.63;5019937;28;20113;-61
2022/09/01 04:18:03;;;;;;;9.43;8.43;;;;;;;23.71;52.73;94792.59;5021102;28;20132;-61
2022/09/01 04:18:56;;;;;;;9.65;8.60;;;;;;;23.58;53.08;94789.75;5021466;28;20450;-61
2022/09/01 04:21:21;;;;;;;10.80;9.48;;;;;;;23.54;53.33;94781.13;5011902;28;20018;-60
2022/09/01 04:23:47;;;;;;;11.30;8.57;;;;;;;23.69;52.51;94786.88;5024578;28;20071;-61
2022/09/01 04:26:19;;;;;;;12.05;9.20;;;;;;;23.71;52.78;94784.41;5015080;28;20049;-61
2022/09/01 04:28:48;;;;;;;11.15;8.98;;;;;;;23.68;53.07;94788.16;5023771;28;20040;-60
2022/09/01 04:31:18;;;;;;;13.03;9.30;;;;;;;23.63;52.93;94772.56;5024754;28;20485;-61
2022/09/01 04:33:48;;;;;;;12.48;10.32;;;;;;;23.43;52.93;94748.56;5001525;28;20291;-61
2022/09/01 04:36:18;;;;;;;;;;;;;;;23.63;53.27;94783.47;5021850;28;20032;-60
2022/09/01 04:38:44;;;;;;;11.70;9.45;;;;;;;23.48;53.80;94783.94;5015017;28;19917;-61
2022/09/01 04:41:16;;;;;;;11.52;9.25;;;;;;;23.52;53.38;94789.09;5023592;28;20033;-61
2022/09/01 04:43:46;;;;;;;16.73;10.18;;;;;;;23.56;53.45;94778.63;5017298;28;20080;-61
2022/09/01 04:46:13;;;;;;;;;;;;;;;23.58;53.74;94793.19;5024919;28;20033;-61
2022/09/01 04:48:42;;;;;;;11.32;9.98;;;;;;;23.72;53.41;94785.84;5007868;28;20451;-61
2022/09/01 04:51:09;;;;;;;12.23;9.73;;;;;;;23.75;53.19;94784.81;5018212;28;20568;-62
2022/09/01 04:53:35;;;;;;;13.65;9.90;;;;;;;23.66;53.64;94782.47;5005619;28;20045;-62
2022/09/01 04:56:08;;;;;;;12.90;10.43;;;;;;;23.66;53.27;94783.22;5024687;28;20037;-62
2022/09/01 04:58:34;;;;;;;12.25;10.02;;;;;;;23.61;53.29;94780.53;5024181;28;20037;-62
2022/09/01 05:01:05;;;;;;;12.73;9.93;;;;;;;23.61;53.44;94777.81;5006749;28;20043;-62
2022/09/01 05:03:30;;;;;;;13.45;10.05;;;;;;;23.70;53.61;94783.66;5014613;28;20026;-63
2022/09/01 05:06:02;;;;;;;16.67;10.55;;;;;;;23.26;53.69;94728.97;5000858;28;20273;-63
2022/09/01 05:08:27;;;;;;;18.63;12.80;;;;;;;23.60;53.89;94785.25;5024272;28;20571;-66
2022/09/01 05:10:55;;;;;;;13.90;10.90;;;;;;;23.62;53.92;94776.56;5015916;28;20042;-64
2022/09/01 05:13:22;;;;;;;14.23;10.90;;;;;;;23.62;53.93;94787.47;5023168;28;20132;-62
2022/09/01 05:16:00;;;;;;;13.50;10.75;;;;;;;23.35;53.69;94750.41;5021412;28;20041;-62
2022/09/01 05:18:26;;;;;;;13.00;10.93;;;;;;;23.56;54.11;94779.34;5013833;28;20121;-61
2022/09/01 05:20:52;;;;;;;17.00;11.48;;;;;;;23.42;54.06;94763.44;5023522;28;20581;-63
2022/09/01 05:23:18;;;;;;;14.77;11.60;;;;;;;23.37;54.15;94771.69;5006367;28;20045;-63
2022/09/01 05:25:45;;;;;;;14.27;10.82;;;;;;;23.40;54.89;94779.56;4991165;28;20678;-61
2022/09/01 05:28:14;;;;;;;14.52;11.20;;;;;;;23.47;54.39;94781.72;5024042;28;20517;-63
2022/09/01 05:30:40;;;;;;;14.65;10.80;;;;;;;23.48;54.32;94777.72;5024301;28;20741;-61
2022/09/01 05:33:10;;;;;;;14.68;10.43;;;;;;;23.45;54.85;94773.31;5021968;28;20061;-63
2022/09/01 05:35:43;;;;;;;15.30;12.05;;;;;;;23.32;55.47;94770.50;5021601;28;20045;-62
2022/09/01 05:38:11;;;;;;;16.73;12.13;;;;;;;22.94;54.72;94690.03;5022293;28;20053;-63
2022/09/01 05:40:41;;;;;;;17.15;11.43;;;;;;;23.42;55.26;94764.19;5025203;28;20117;-61
2022/09/01 05:43:11;;;;;;;17.43;11.60;;;;;;;23.50;55.40;94770.50;5005494;28;20048;-63
2022/09/01 05:45:39;;;;;;;15.65;12.38;;;;;;;23.51;55.36;94776.69;5007044;28;20288;-60
2022/09/01 05:48:05;;;;;;;15.23;11.90;;;;;;;22.99;55.14;94683.75;5009853;28;20128;-61
2022/09/01 05:50:30;;;;;;;17.17;12.05;;;;;;;23.54;55.96;94787.31;5017963;28;20421;-62
2022/09/01 05:52:56;;;;;;;16.75;11.75;;;;;;;23.56;55.98;94779.34;5021616;28;20040;-61
2022/09/01 05:55:21;;;;;;;15.75;12.30;;;;;;;23.11;56.27;94706.88;5021096;28;20136;-61
2022/09/01 05:57:47;;;;;;;18.23;11.98;;;;;;;23.61;55.81;94775.09;5022695;28;20089;-62
2022/09/01 06:00:16;;;;;;;17.27;12.95;;;;;;;23.68;56.00;94790.88;5020656;28;20021;-61
2022/09/01 06:02:42;;;;;;;16.90;12.05;;;;;;;23.13;56.33;94693.47;5019194;28;20072;-61
2022/09/01 06:05:09;;;;;;;16.30;13.68;;;;;;;23.81;56.35;94778.06;5018386;28;20040;-63
2022/09/01 06:07:36;;;;;;;21.92;14.27;;;;;;;23.18;55.96;94657.25;5016376;28;20041;-62
2022/09/01 06:10:02;;;;;;;20.70;14.52;;;;;;;23.39;56.21;94699.06;5017028;28;20022;-62
2022/09/01 06:12:28;;;;;;;17.48;13.13;;;;;;;23.69;55.56;94716.00;5019886;28;20068;-63
2022/09/01 06:14:54;;;;;;;19.83;13.35;;;;;;;23.35;55.13;94654.28;5014074;28;20069;-63
2022/09/01 06:17:23;;;;;;;19.60;14.38;;;;;;;22.39;54.85;94534.06;4979791;28;20417;-62
2022/09/01 06:19:54;;;;;;;16.97;13.47;;;;;;;23.19;54.94;94615.16;5021302;28;20073;-62
2022/09/01 06:22:20;;;;;;;20.13;14.00;;;;;;;24.35;54.98;94762.84;5009502;28;20052;-62
2022/09/01 06:24:46;;;;;;;20.08;14.63;;;;;;;24.21;54.73;94739.47;5018461;28;20056;-62
2022/09/01 06:27:16;;;;;;;19.58;13.88;;;;;;;24.55;54.61;94768.44;5019391;28;20170;-62
2022/09/01 06:29:42;;;;;;;;;;;;;;;23.95;53.93;94662.31;5014718;28;20658;-62
2022/09/01 06:32:09;;;;;;;18.65;13.88;;;;;;;24.67;54.50;94758.06;5019451;28;19929;-63
2022/09/01 06:34:37;;;;;;;18.88;13.85;;;;;;;24.77;54.03;94745.47;5021120;28;20673;-62
2022/09/01 06:37:03;;;;;;;22.27;14.35;;;;;;;24.63;53.50;94719.41;5018440;28;20033;-63
2022/09/01 06:39:30;;;;;;;19.65;14.80;;;;;;;24.82;53.48;94731.00;5012344;28;20179;-62
2022/09/01 06:41:57;;;;;;;18.48;14.27;;;;;;;24.92;53.61;94752.63;5020874;28;20037;-62
2022/09/01 06:44:23;;;;;;;21.00;14.13;;;;;;;24.84;53.71;94756.50;5021348;28;20033;-63
2022/09/01 06:46:52;;;;;;;22.13;15.68;;;;;;;24.82;53.44;94721.50;5017681;28;20584;-62
2022/09/01 06:49:20;;;;;;;21.83;15.57;;;;;;;24.48;53.59;94686.44;5020844;28;20470;-61
2022/09/01 06:51:50;;;;;;;22.45;15.63;;;;;;;25.31;52.70;94758.09;5021887;28;20025;-60
2022/09/01 06:54:16;;;;;;;25.55;15.38;;;;;;;25.06;52.71;94721.31;5000069;28;20116;-61
2022/09/01 06:56:41;;;;;;;23.00;14.85;;;;;;;24.96;52.82;94703.88;5012855;28;20147;-61
2022/09/01 06:59:07;;;;;;;20.02;14.15;;;;;;;25.40;52.16;94741.97;5019539;28;20048;-61
2022/09/01 07:01:32;;;;;;;21.55;15.02;;;;;;;24.92;52.23;94659.75;5019579;28;20128;-60
2022/09/01 07:03:58;;;;;;;26.20;16.58;;;;;;;25.21;51.59;94707.84;5005736;28;20014;-60
2022/09/01 07:06:26;;;;;;;23.02;15.80;;;;;;;25.61;52.05;94767.38;5013690;28;20087;-61
2022/09/01 07:08:54;;;;;;;23.75;15.68;;;;;;;25.62;51.35;94740.78;5013382;28;20074;-60
2022/09/01 07:11:26;;;;;;;24.35;15.70;;;;;;;25.42;51.48;94706.63;5019195;28;20087;-61
2022/09/01 07:13:53;;;;;;;23.95;15.77;;;;;;;25.61;50.48;94684.63;5004943;28;20044;-61
2022/09/01 07:16:22;;;;;;;23.52;16.23;;;;;;;25.84;50.96;94741.78;5017744;28;20836;-62
2022/09/01 07:18:49;;;;;;;20.30;15.40;;;;;;;25.95;50.82;94763.41;5006368;28;20037;-61
2022/09/01 07:21:15;;;;;;;20.10;14.80;;;;;;;25.80;50.91;94735.91;5007067;28;20079;-63
2022/09/01 07:23:42;;;;;;;21.95;14.68;;;;;;;25.65;50.95;94718.59;5017151;28;20502;-61
2022/09/01 07:26:09;;;;;;;21.50;15.88;;;;;;;25.52;50.42;94674.13;5019021;28;20073;-60
2022/09/01 07:28:34;;;;;;;21.45;15.30;;;;;;;25.36;50.23;94634.22;5015702;28;20096;-71
2022/09/01 07:31:00;;;;;;;21.17;15.13;;;;;;;26.18;50.32;94747.94;5021448;28;20018;-60
2022/09/01 07:33:26;;;;;;;20.58;15.70;;;;;;;26.11;50.30;94732.19;5022780;28;20045;-59
2022/09/01 07:35:56;;;;;;;20.75;15.40;;;;;;;26.28;50.15;94746.25;4993772;28;20033;-60
2022/09/01 07:38:21;;;;;;;;;;;;;;;26.22;50.49;94748.34;5001489;28;20490;-61
2022/09/01 07:40:47;;;;;;;21.10;15.20;;;;;;;25.78;50.01;94654.91;5017995;28;19925;-69
2022/09/01 07:43:21;;;;;;;24.83;15.70;;;;;;;26.23;49.73;94708.75;5022821;28;20026;-61
2022/09/01 07:45:47;;;;;;;23.52;14.45;;;;;;;26.46;49.53;94734.34;5004435;28;20089;-62
2022/09/01 07:48:13;;;;;;;24.90;14.93;;;;;;;26.52;49.99;94751.38;5017859;28;20048;-61
2022/09/01 07:50:46;;;;;;;17.40;13.20;;;;;;;26.46;49.57;94726.13;5022136;28;20042;-61
2022/09/01 07:53:15;;;;;;;21.35;15.10;;;;;;;26.60;49.62;94754.91;5006484;28;20034;-61
2022/09/01 07:55:41;;;;;;;19.92;14.35;;;;;;;26.10;49.35;94669.75;5017378;28;20152;-61
2022/09/01 07:58:07;;;;;;;27.15;18.85;;;;;;;27.19;48.13;94754.56;5021217;28;20055;-61
2022/09/01 08:00:33;;;;;;;26.38;18.85;;;;;;;27.44;48.02;94759.09;5023158;28;20782;-61
2022/09/01 08:02:58;;;;;;;22.45;16.52;;;;;;;26.91;48.59;94752.59;5004963;28;20033;-61
2022/09/01 08:05:25;;;;;;;24.33;16.40;;;;;;;26.80;48.53;94766.56;5025643;28;20092;-61
2022/09/01 08:07:52;;;;;;;23.20;17.05;;;;;;;26.78;49.13;94744.44;5020115;28;20037;-61
2022/09/01 08:10:17;;;;;;;20.90;15.70;;;;;;;26.83;48.78;94735.34;5017957;28;20591;-61
2022/09/01 08:12:43;;;;;;;22.25;16.48;;;;;;;26.43;48.88;94658.75;5021151;28;20017;-61
2022/09/01 08:15:08;;;;;;;25.17;16.98;;;;;;;26.15;48.94;94623.09;5015717;28;20034;-61
2022/09/01 08:17:36;;;;;;;23.33;16.00;;;;;;;27.12;49.01;94755.28;5025017;28;20052;-61
2022/09/01 08:20:01;;;;;;;22.90;15.60;;;;;;;27.11;48.63;94754.53;5015091;28;20101;-61
2022/09/01 08:22:27;;;;;;;22.55;16.58;;;;;;;26.31;48.51;94630.19;5020337;28;20076;-61
2022/09/01 08:24:52;;;;;;;24.45;16.80;;;;;;;26.52;48.21;94644.56;5020056;28;20061;-61
2022/09/01 08:27:18;;;;;;;25.00;16.40;;;;;;;26.73;48.22;94664.41;5015089;28;20045;-61
2022/09/01 08:29:44;;;;;;;21.02;16.02;;;;;;;27.15;48.50;94749.44;5019339;28;20495;-61
2022/09/01 08:32:12;;;;;;;19.70;15.80;;;;;;;26.69;47.98;94670.22;5020674;28;20041;-61
2022/09/01 08:34:37;;;;;;;22.60;15.30;;;;;;;27.15;48.10;94724.78;5015331;28;20209;-62
2022/09/01 08:37:04;;;;;;;20.88;14.98;;;;;;;26.84;48.14;94676.50;5005638;28;20034;-62
2022/09/01 08:39:29;;;;;;;20.95;14.90;;;;;;;27.26;48.11;94727.19;5018132;28;20434;-61
2022/09/01 08:42:01;;;;;;;22.52;14.65;;;;;;;27.18;48.24;94734.66;5015327;28;20042;-61
2022/09/01 08:44:44;;;;;;;19.92;14.93;;;;;;;27.34;47.94;94734.19;5002997;28;20049;-61
2022/09/01 08:47:11;;;;;;;24.63;15.20;;;;;;;27.36;47.96;94741.88;5012723;28;20536;-61
2022/09/01 08:49:37;;;;;;;22.20;14.90;;;;;;;27.28;47.71;94697.97;5013324;28;20052;-61
2022/09/01 08:52:30;;;;;;;22.45;15.85;;;;;;;27.43;47.76;94724.72;5004277;28;20030;-61
2022/09/01 08:55:08;;;;;;;21.33;14.95;;;;;;;26.73;47.68;94604.16;5002794;28;20040;-61
2022/09/01 08:57:38;;;;;;;22.25;15.02;;;;;;;27.56;47.31;94710.88;4976300;28;20104;-61
2022/09/01 09:00:07;;;;;;;21.58;14.75;;;;;;;27.17;47.54;94663.91;5018093;28;20084;-61
2022/09/01 09:02:42;;;;;;;22.65;15.35;;;;;;;27.52;47.58;94705.00;5001100;28;20045;-61
2022/09/01 09:05:32;;;;;;;19.92;14.88;;;;;;;27.62;47.26;94698.47;4996206;28;20089;-61
2022/09/01 09:08:22;;;;;;;17.90;13.40;;;;;;;27.70;47.16;94703.97;4998754;28;20107;-61
2022/09/01 09:10:49;;;;;;;20.33;13.18;;;;;;;27.67;46.69;94689.34;5005958;28;20056;-61
2022/09/01 09:13:32;;;;;;;17.60;12.93;;;;;;;27.65;46.63;94693.91;5023720;28;20478;-61
2022/09/01 09:16:01;;;;;;;17.85;12.38;;;;;;;27.25;47.03;94638.72;4993514;28;20030;-61
2022/09/01 09:18:36;;;;;;;19.02;14.18;;;;;;;27.63;46.97;94688.97;4993508;28;20018;-61
2022/09/01 09:21:11;;;;;;;18.83;13.98;;;;;;;27.74;46.55;94683.88;5006110;28;20069;-60
2022/09/01 09:23:41;;;;;;;18.42;12.88;;;;;;;27.52;46.26;94634.44;4994425;28;20042;-61
2022/09/01 09:26:06;;;;;;;18.65;14.93;;;;;;;27.64;46.34;94659.50;5010838;28;20065;-61
2022/09/01 09:28:32;;;;;;;18.50;13.80;;;;;;;27.88;45.96;94679.69;5022047;28;20103;-61
2022/09/01 09:31:28;;;;;;;19.58;13.55;;;;;;;27.98;45.63;94691.59;5023129;28;20025;-61
2022/09/01 09:33:53;;;;;;;18.00;13.52;;;;;;;27.90;45.87;94685.34;5023272;28;20072;-62
2022/09/01 09:36:28;;;;;;;18.40;13.50;;;;;;;27.62;45.91;94631.91;5015996;28;20025;-61
2022/09/01 09:39:08;;;;;;;17.42;12.43;;;;;;;28.01;45.62;94679.53;4994641;28;20584;-61
2022/09/01 09:41:33;;;;;;;17.13;13.23;;;;;;;27.98;45.14;94675.13;5011596;28;20083;-61
2022/09/01 09:44:25;;;;;;;17.77;12.63;;;;;;;28.12;45.47;94668.22;4986059;28;20812;-61
2022/09/01 09:46:51;;;;;;;18.27;12.57;;;;;;;27.92;44.93;94643.63;5000492;28;20052;-61
2022/09/01 09:49:19;;;;;;;16.45;12.05;;;;;;;28.17;45.04;94659.06;5023600;28;20065;-61
2022/09/01 09:51:48;;;;;;;14.98;11.77;;;;;;;28.11;45.36;94666.75;5023709;28;20017;-61
2022/09/01 09:54:27;;;;;;;17.90;11.73;;;;;;;27.83;45.10;94614.72;5005409;28;20588;-61
2022/09/01 09:57:07;;;;;;;14.90;11.63;;;;;;;28.24;44.38;94674.81;5012252;28;20073;-61
2022/09/01 09:59:46;;;;;;;17.67;11.60;;;;;;;28.26;44.39;94664.00;5023037;28;20544;-61
2022/09/01 10:02:25;;;;;;;17.52;11.65;;;;;;;28.17;44.53;94667.28;5005213;28;20068;-63
2022/09/01 10:04:51;;;;;;;14.63;10.57;;;;;;;27.83;44.04;94620.22;5021505;28;20040;-61
2022/09/01 10:07:35;;;;;;;14.65;11.25;;;;;;;28.40;43.80;94659.75;5004556;28;20045;-61
2022/09/01 10:10:04;;;;;;;15.05;10.38;;;;;;;27.98;42.78;94598.28;5022570;28;20006;-61
2022/09/01 10:12:29;;;;;;;16.38;10.65;;;;;;;28.30;42.64;94639.66;5022869;28;20510;-61
2022/09/01 10:15:06;;;;;;;13.63;9.70;;;;;;;27.65;42.57;94548.50;4972265;28;20045;-62
2022/09/01 10:17:37;;;;;;;11.63;10.40;;;;;;;27.93;43.50;94574.47;5021416;28;20144;-61
2022/09/01 10:20:08;;;;;;;14.13;9.98;;;;;;;27.17;43.78;94472.00;4985732;28;20124;-61
2022/09/01 10:22:35;;;;;;;13.95;10.80;;;;;;;28.46;43.65;94646.56;5021924;28;20592;-61
2022/09/01 10:25:00;;;;;;;12.27;9.70;;;;;;;28.29;43.19;94616.19;4984338;28;20049;-61
2022/09/01 10:27:29;;;;;;;14.63;10.13;;;;;;;28.40;43.64;94626.81;4993137;28;20040;-61
2022/09/01 10:30:06;;;;;;;14.63;10.23;;;;;;;28.48;43.26;94649.53;4980487;28;20161;-61
2022/09/01 10:32:41;;;;;;;10.60;9.20;;;;;;;28.49;43.54;94650.97;5002450;28;20106;-64
2022/09/01 10:35:11;;;;;;;15.35;10.20;;;;;;;28.46;43.07;94657.56;5001580;28;20044;-62
2022/09/01 10:37:37;;;;;;;11.13;9.23;;;;;;;27.84;42.83;94539.31;4987926;28;20596;-61
2022/09/01 10:40:14;;;;;;;12.00;9.77;;;;;;;28.54;43.48;94636.31;4990134;28;20045;-63
2022/09/01 10:42:44;;;;;;;12.68;10.07;;;;;;;28.22;43.45;94578.50;4992028;28;20141;-62
2022/09/01 10:45:20;;;;;;;14.30;9.73;;;;;;;28.09;43.16;94559.47;4992591;28;20037;-62
2022/09/01 10:47:46;;;;;;;11.80;9.88;;;;;;;28.66;43.34;94640.16;5019854;28;20877;-62
2022/09/01 10:50:31;;;;;;;12.10;9.32;;;;;;;28.48;43.01;94594.56;5017594;28;20044;-62
2022/09/01 10:52:59;;;;;;;11.50;9.73;;;;;;;28.73;43.43;94620.91;5004130;28;20029;-62
2022/09/01 10:55:38;;;;;;;17.05;9.23;;;;;;;28.59;43.08;94594.16;5001304;28;20042;-62
2022/09/01 10:58:06;;;;;;;12.55;9.40;;;;;;;28.83;43.10;94625.28;4998615;28;20040;-63
2022/09/01 11:00:34;;;;;;;14.05;9.48;;;;;;;28.86;43.34;94635.19;5006070;28;20025;-63
2022/09/01 11:03:12;;;;;;;14.23;10.02;;;;;;;28.95;42.66;94615.34;5020109;28;20045;-63
2022/09/01 11:05:52;;;;;;;15.13;9.48;;;;;;;28.99;42.61;94623.22;5016527;28;20077;-63
2022/09/01 11:08:22;;;;;;;14.02;9.27;;;;;;;28.56;42.32;94540.31;5010992;28;20064;-63
2022/09/01 11:10:50;;;;;;;;;;;;;;;29.01;42.54;94610.34;5004344;28;20113;-63
2022/09/01 11:13:44;;;;;;;12.82;9.15;;;;;;;29.12;42.02;94607.22;5021531;28;19917;-62
2022/09/01 11:16:34;;;;;;;13.45;9.02;;;;;;;29.15;42.06;94611.59;5018601;28;20045;-64
2022/09/01 11:19:27;;;;;;;11.00;8.80;;;;;;;29.15;42.35;94611.59;5003042;28;20021;-62
2022/09/01 11:22:26;;;;;;;11.10;9.02;;;;;;;27.78;41.76;94459.19;5019128;28;20053;-64
2022/09/01 11:25:33;;;;;;;11.93;9.27;;;;;;;29.20;41.67;94602.38;4993905;28;20573;-62
2022/09/01 11:28:05;;;;;;;12.07;9.10;;;;;;;29.22;42.05;94597.06;4989645;28;20791;-63
2022/09/01 11:30:30;;;;;;;11.93;9.00;;;;;;;29.17;41.78;94595.25;5001507;28;20053;-62
2022/09/01 11:32:59;;;;;;;10.93;8.60;;;;;;;28.57;42.07;94508.81;4998749;28;20061;-62
2022/09/01 11:35:25;;;;;;;11.13;9.15;;;;;;;28.79;41.99;94547.22;4984130;28;20037;-62
2022/09/01 11:37:53;;;;;;;12.25;8.98;;;;;;;29.11;41.89;94583.72;4996442;28;20048;-63